Ana Sayfa
METAR-TAF:

METAR-TAF

Havaalanları :

Kunming, Çin

Enlem: 25-01N, Boylam: 102-41E, yükseklik: 1892 m

Güncel hava durumu gözlemi

Rapor saat 21:00 UTC de 44 dakika önce yapıldı.
Rüzgar kuzeydoğudan 2 kt
Sıcaklık 14°C
Nem 94%
Basınç 1016 hPa
Görüş mesafesi: 5000 m
2300 ft yükseklikte az bulutlu
4000 ft yükseklikte parçalı bulutlu
Pus

METAR: ZPPP 222100Z 05001MPS 5000 BR FEW023 SCT040 14/13 Q1016 NOSIG

Saat: 05:44 (21:44 UTC)

Tahmin

Rapor saat 13:07 UTC de 8 saat ve 37 dakika önce yapıldı.
Ayın 22'si saat 18 UTC'den ayın 23'si saat 18 UTC'ye kadar geçerli Tahmin
Rüzgar doğu/kuzeydoğudan 8 kt
Görüş mesafesi 10 km veya daha fazla
2600 ft yükseklikte parçalı bulutlu
4000 ft yükseklikte parçalı çok bulutlu

TAF: ZPPP 221307Z 2218/2318 06004MPS 9999 SCT026 BKN040 TX26/2308Z TN15/2223Z

4.000'den fazla havaalanı için hava durumu gözlemleri ve tahminleri (METAR ve TAF raporları).

Kullanılabilir istasyonlar harita üzerinde sarı ve kırmızı noktalarla gösterilir.

İstasyonun adını görmek için fareyi noktanın üzerinde gezdirin.

Sonrasında hava gözlem ve tahminlerini görmek için tıklayın.

Haritayı değiştirmek için: yaklaştırmak için siyah artı işaretli yeşil düğmeye ve uzaklaştırmak için de eksi işaretli düğmeye hızla tıklayın; bitişik haritalar için yeşil okları kullanın.


METAR-TAF: